createdAt,value
2023-03-12T05:41:11.154Z,6.38
2023-03-12T05:44:16.055Z,6.78
2023-03-12T06:04:35.242Z,6.82
2023-03-12T06:07:37.955Z,7.68
2023-03-12T06:10:40.837Z,6.35
2023-03-12T06:13:43.641Z,6.55
2023-03-12T06:16:46.261Z,7.00
2023-03-12T06:19:52.829Z,6.40
2023-03-12T06:22:55.396Z,6.32
2023-03-12T06:25:57.958Z,6.28
2023-03-12T06:29:00.549Z,5.22
2023-03-12T06:32:03.133Z,4.50
2023-03-12T06:35:07.755Z,4.40
2023-03-12T06:38:10.347Z,4.40
2023-03-12T06:41:15.159Z,3.85
2023-03-12T06:44:17.927Z,3.50
2023-03-12T06:47:20.483Z,3.78
2023-03-12T06:50:24.320Z,4.32
2023-03-12T06:53:27.267Z,3.20
2023-03-12T06:56:30.521Z,4.03
2023-03-12T06:59:33.032Z,3.72
2023-03-12T07:02:35.594Z,3.20
2023-03-12T07:05:39.456Z,3.70
2023-03-12T07:08:43.021Z,3.65
2023-03-12T07:11:45.626Z,3.72
2023-03-12T07:14:48.146Z,3.42
2023-03-12T07:17:50.831Z,3.22
2023-03-12T07:20:55.341Z,3.75
2023-03-12T07:23:57.909Z,3.83
2023-03-12T07:27:00.484Z,3.83
2023-03-12T07:30:02.995Z,3.35
2023-03-12T07:33:06.356Z,3.65
2023-03-12T07:36:10.672Z,3.97
2023-03-12T07:39:13.227Z,3.53
2023-03-12T07:42:15.834Z,3.13
2023-03-12T07:45:18.857Z,3.03
2023-03-12T07:48:21.464Z,3.72
2023-03-12T07:51:25.333Z,3.05
2023-03-12T07:54:30.693Z,3.35
2023-03-12T07:57:33.411Z,3.13
2023-03-12T08:00:36.047Z,2.95
2023-03-12T08:03:39.031Z,2.85
2023-03-12T08:06:43.569Z,3.17
2023-03-12T08:09:49.450Z,2.55
2023-03-12T08:12:52.159Z,2.80
2023-03-12T08:15:55.559Z,2.83
2023-03-12T08:18:58.546Z,3.47
2023-03-12T08:22:02.384Z,2.90
2023-03-12T08:25:05.755Z,2.67
2023-03-12T08:28:08.272Z,1.98
2023-03-12T08:31:11.528Z,2.53
2023-03-12T08:34:14.028Z,1.95
2023-03-12T08:37:17.960Z,2.38
2023-03-12T08:40:20.699Z,2.50
2023-03-12T08:43:23.198Z,2.20
2023-03-12T08:46:25.734Z,2.17
2023-03-12T08:49:28.537Z,1.58
2023-03-12T08:52:32.402Z,1.70
2023-03-12T08:55:34.892Z,1.75
2023-03-12T08:58:37.476Z,1.60
2023-03-12T09:01:43.435Z,1.50
2023-03-12T09:04:48.902Z,1.70
2023-03-12T09:07:52.761Z,1.52
2023-03-12T09:10:55.316Z,1.20
2023-03-12T09:14:28.394Z,1.13
2023-03-12T09:17:20.373Z,1.27
2023-03-12T09:20:23.494Z,1.20
2023-03-12T09:23:28.530Z,1.52
2023-03-12T09:26:31.101Z,1.73
2023-03-12T09:29:34.000Z,0.90
2023-03-12T09:32:36.875Z,1.02
2023-03-12T09:35:39.609Z,1.20
2023-03-12T09:38:43.491Z,1.20
2023-03-12T09:41:48.402Z,0.60
2023-03-12T09:44:53.012Z,0.90
2023-03-12T09:47:58.009Z,1.05
2023-03-12T09:51:07.120Z,1.17
2023-03-12T09:54:25.554Z,0.90
2023-03-12T09:57:30.014Z,1.17
2023-03-12T10:00:36.033Z,1.05
2023-03-12T10:03:54.550Z,1.00
2023-03-12T10:07:09.899Z,1.42
2023-03-12T10:10:28.951Z,1.00
2023-03-12T10:13:58.722Z,0.82
2023-03-12T10:17:16.069Z,0.93
2023-03-12T10:20:41.233Z,1.33
2023-03-12T10:23:56.584Z,0.75
2023-03-12T10:27:01.815Z,0.90
2023-03-12T10:30:13.968Z,0.90
2023-03-12T10:33:19.664Z,0.98
2023-03-12T10:36:26.962Z,1.13
2023-03-12T10:39:29.566Z,1.30
2023-03-12T10:42:33.907Z,1.13
2023-03-12T10:45:41.176Z,1.23
2023-03-12T10:48:44.131Z,1.15
2023-03-12T10:51:56.429Z,0.77
2023-03-12T10:55:11.329Z,1.20
2023-03-12T10:58:25.135Z,1.08
2023-03-12T11:01:30.142Z,0.80
2023-03-12T11:04:34.798Z,1.15
2023-03-12T11:07:37.490Z,0.77
2023-03-12T11:10:44.292Z,0.90
2023-03-12T11:13:48.293Z,1.40
2023-03-12T11:16:51.947Z,1.35
2023-03-12T11:19:55.419Z,1.08
2023-03-12T11:22:58.111Z,1.13
2023-03-12T11:26:03.755Z,0.85
2023-03-12T11:29:26.079Z,1.10
2023-03-12T11:32:34.278Z,1.58
2023-03-12T11:35:50.434Z,1.33
2023-03-12T11:39:04.578Z,1.55
2023-03-12T11:42:26.584Z,1.80
2023-03-12T11:48:46.606Z,1.08
2023-03-12T11:51:56.618Z,1.00
2023-03-12T11:55:20.496Z,0.80
2023-03-12T11:58:36.916Z,0.80
2023-03-12T12:01:53.007Z,0.90
2023-03-12T12:05:23.411Z,0.85
2023-03-12T12:08:37.785Z,1.50
2023-03-12T12:11:51.374Z,1.15
2023-03-12T12:15:04.455Z,0.90
2023-03-12T12:18:27.457Z,1.27
2023-03-12T12:22:00.034Z,1.13
2023-03-12T12:25:22.535Z,1.10
2023-03-12T12:28:55.547Z,1.10
2023-03-12T12:32:00.127Z,1.50
2023-03-12T12:35:16.103Z,1.30
2023-03-12T12:38:30.289Z,1.63
2023-03-12T12:41:36.316Z,1.85
2023-03-12T12:44:44.659Z,1.88
2023-03-12T12:47:51.870Z,1.40
2023-03-12T12:50:59.615Z,1.33
2023-03-12T12:54:09.674Z,1.42
2023-03-12T12:57:19.613Z,1.00
2023-03-12T13:00:41.334Z,1.00
2023-03-12T13:03:45.366Z,1.20
2023-03-12T13:06:57.618Z,1.38
2023-03-12T13:10:00.693Z,1.10
2023-03-12T13:13:10.215Z,1.15
2023-03-12T13:16:28.758Z,1.10
2023-03-12T13:19:31.479Z,1.25
2023-03-12T13:22:49.069Z,0.93
2023-03-12T13:26:01.141Z,0.88
2023-03-12T13:29:22.146Z,1.20
2023-03-12T13:33:07.389Z,1.00
2023-03-12T13:36:24.351Z,1.25
2023-03-12T13:39:32.980Z,1.10
2023-03-12T13:42:42.834Z,1.35
2023-03-12T13:45:59.307Z,1.27
2023-03-12T13:49:06.700Z,1.15
2023-03-12T13:52:20.604Z,0.82
2023-03-12T13:55:28.203Z,1.00
2023-03-12T13:58:31.800Z,1.05
2023-03-12T14:01:39.008Z,1.20
2023-03-12T14:04:43.325Z,0.85
2023-03-12T14:07:58.870Z,1.10
2023-03-12T14:11:20.196Z,1.13
2023-03-12T14:14:48.344Z,0.77
2023-03-12T14:17:57.598Z,1.52
2023-03-12T14:21:02.868Z,1.05
2023-03-12T14:24:08.612Z,2.10
2023-03-12T14:27:18.705Z,2.28
2023-03-12T14:30:25.594Z,1.20
2023-03-12T14:33:34.700Z,1.20
2023-03-12T14:36:40.675Z,1.30
2023-03-12T14:39:46.591Z,2.22
2023-03-12T14:42:50.841Z,1.65
2023-03-12T14:45:56.048Z,1.40
2023-03-12T14:48:58.582Z,1.48
2023-03-12T14:52:01.095Z,1.42
2023-03-12T14:55:09.178Z,1.58
2023-03-12T14:58:19.899Z,1.20
2023-03-12T15:01:24.924Z,1.30
2023-03-12T15:04:27.996Z,1.42
2023-03-12T15:07:33.759Z,0.50
2023-03-12T15:10:36.373Z,0.70
2023-03-12T15:13:40.839Z,0.63
2023-03-12T15:16:44.245Z,0.93
2023-03-12T15:19:47.814Z,0.63
2023-03-12T15:22:51.052Z,0.95
2023-03-12T15:26:14.433Z,0.60
2023-03-12T15:29:27.185Z,0.80
2023-03-12T15:32:31.883Z,0.80
2023-03-12T15:35:34.929Z,1.02
2023-03-12T15:38:39.218Z,0.95
2023-03-12T15:41:44.131Z,1.02
2023-03-12T15:44:49.929Z,1.10
2023-03-12T15:47:55.358Z,1.17
2023-03-12T15:50:58.035Z,1.23
2023-03-12T15:54:06.748Z,1.23
2023-03-12T15:57:27.263Z,1.67
2023-03-12T16:00:33.138Z,1.23
2023-03-12T16:03:35.894Z,1.20
2023-03-12T16:06:38.502Z,1.50
2023-03-12T16:09:41.181Z,1.13
2023-03-12T16:12:44.937Z,0.98
2023-03-12T16:15:49.655Z,1.08
2023-03-12T16:18:52.146Z,1.08
2023-03-12T16:21:54.669Z,0.85
2023-03-12T16:24:57.222Z,0.95
2023-03-12T16:28:02.913Z,1.00
2023-03-12T16:31:12.315Z,1.35
2023-03-12T16:34:14.930Z,1.13
2023-03-12T16:37:17.430Z,1.05
2023-03-12T16:40:32.482Z,0.80
2023-03-12T16:59:31.836Z,1.13
